createdAt,value
2022-09-12T00:02:08.981Z,98089.50
2022-09-12T00:04:53.804Z,98089.75
2022-09-12T00:07:39.228Z,98082.50
2022-09-12T00:10:26.638Z,98082.78
2022-09-12T00:13:11.844Z,98079.41
2022-09-12T00:15:56.670Z,98087.91
2022-09-12T00:18:41.911Z,98076.31
2022-09-12T00:21:29.649Z,98085.03
2022-09-12T00:24:14.691Z,98078.13
2022-09-12T00:26:59.686Z,98076.31
2022-09-12T00:29:44.503Z,98075.53
2022-09-12T00:32:29.488Z,98077.63
2022-09-12T00:35:14.617Z,98070.16
2022-09-12T00:38:01.123Z,98079.91
2022-09-12T00:40:46.883Z,98076.81
2022-09-12T00:43:40.596Z,98077.03
2022-09-12T00:46:50.430Z,98078.25
2022-09-12T00:50:02.999Z,98073.81
2022-09-12T00:52:54.883Z,98071.69
2022-09-12T00:55:42.909Z,98067.25
2022-09-12T00:58:47.283Z,98065.16
2022-09-12T01:01:33.441Z,98061.53
2022-09-12T01:04:22.980Z,98058.41
2022-09-12T01:07:08.305Z,98065.09
2022-09-12T01:09:53.187Z,98060.75
2022-09-12T01:12:40.714Z,98056.41
2022-09-12T01:15:25.731Z,98054.31
2022-09-12T01:18:31.064Z,98063.53
2022-09-12T01:21:43.691Z,98059.72
2022-09-12T01:24:40.595Z,98056.66
2022-09-12T01:27:59.894Z,98060.53
2022-09-12T01:31:03.287Z,98062.09
2022-09-12T01:34:03.677Z,98064.19
2022-09-12T01:37:25.526Z,98062.09
2022-09-12T01:40:41.820Z,98062.31
2022-09-12T01:43:45.644Z,98064.38
2022-09-12T01:46:52.254Z,98063.59
2022-09-12T01:49:58.900Z,98064.38
2022-09-12T01:52:52.180Z,98055.59
2022-09-12T01:55:44.729Z,98056.13
2022-09-12T01:58:42.457Z,98062.84
2022-09-12T02:01:30.720Z,98055.88
2022-09-12T02:04:20.457Z,98061.81
2022-09-12T02:07:17.995Z,98059.47
2022-09-12T02:10:27.132Z,98054.34
2022-09-12T02:13:52.095Z,98056.63
2022-09-12T02:16:42.358Z,98046.34
2022-09-12T02:19:43.961Z,98048.69
2022-09-12T02:22:31.057Z,98052.25
2022-09-12T02:25:19.580Z,98047.13
2022-09-12T02:28:11.902Z,98043.00
2022-09-12T02:31:16.154Z,98048.44
2022-09-12T02:34:20.990Z,98050.75
2022-09-12T02:37:25.326Z,98053.09
2022-09-12T02:40:10.574Z,98051.53
2022-09-12T02:42:59.320Z,98050.75
2022-09-12T02:45:46.333Z,98055.34
2022-09-12T02:48:36.089Z,98053.03
2022-09-12T02:51:23.845Z,98047.66
2022-09-12T02:54:11.626Z,98051.25
2022-09-12T02:57:00.163Z,98051.47
2022-09-12T02:59:46.470Z,98053.00
2022-09-12T03:03:20.595Z,98056.25
2022-09-12T03:06:40.888Z,98051.63
2022-09-12T03:09:44.961Z,98048.00
2022-09-12T03:12:48.300Z,98047.69
2022-09-12T03:16:13.941Z,98046.84
2022-09-12T03:19:32.688Z,98045.28
2022-09-12T03:22:17.246Z,98044.50
2022-09-12T03:25:21.331Z,98036.50
2022-09-12T03:28:23.103Z,98046.25
2022-09-12T03:31:14.192Z,98041.88
2022-09-12T03:33:59.688Z,98047.03
2022-09-12T03:36:46.792Z,98046.78
2022-09-12T03:39:32.230Z,98049.34
2022-09-12T03:42:20.220Z,98046.78
2022-09-12T03:45:10.947Z,98048.59
2022-09-12T03:47:57.839Z,98048.59
2022-09-12T03:50:43.194Z,98053.72
2022-09-12T03:53:28.980Z,98049.06
2022-09-12T03:56:15.273Z,98049.84
2022-09-12T03:59:00.134Z,98049.59
2022-09-12T04:01:45.075Z,98052.47
2022-09-12T04:04:30.838Z,98044.28
2022-09-12T04:07:16.719Z,98047.41
2022-09-12T04:10:01.383Z,98051.50
2022-09-12T04:12:46.163Z,98055.94
2022-09-12T04:15:31.503Z,98047.25
2022-09-12T04:18:16.156Z,98055.78
2022-09-12T04:21:13.202Z,98053.03
2022-09-12T04:23:57.791Z,98050.75
2022-09-12T04:26:42.810Z,98042.56
2022-09-12T04:29:28.868Z,98051.81
2022-09-12T04:32:14.525Z,98049.25
2022-09-12T04:34:59.300Z,98049.31
2022-09-12T04:37:44.284Z,98048.56
2022-09-12T04:40:30.849Z,98054.47
2022-09-12T04:43:17.394Z,98047.56
2022-09-12T04:46:11.171Z,98052.22
2022-09-12T04:48:57.207Z,98054.03
2022-09-12T04:51:43.043Z,98043.50
2022-09-12T04:54:28.179Z,98048.16
2022-09-12T04:57:16.256Z,98044.09
2022-09-12T05:00:07.654Z,98048.25
2022-09-12T05:02:52.334Z,98039.31
2022-09-12T05:05:37.146Z,98041.94
2022-09-12T05:08:24.414Z,98045.06
2022-09-12T05:11:16.616Z,98037.91
2022-09-12T05:14:01.864Z,98041.78
2022-09-12T05:16:49.435Z,98044.84
2022-09-12T05:19:34.650Z,98044.03
2022-09-12T05:22:19.676Z,98041.75
2022-09-12T05:25:05.557Z,98040.50
2022-09-12T05:27:53.705Z,98038.25
2022-09-12T05:30:38.882Z,98034.44
2022-09-12T05:33:25.156Z,98031.66
2022-09-12T05:36:17.922Z,98035.78
2022-09-12T05:39:04.093Z,98032.44
2022-09-12T05:41:55.987Z,98031.94
2022-09-12T05:44:45.270Z,98036.34
2022-09-12T05:47:30.226Z,98027.59
2022-09-12T05:50:15.422Z,98035.09
2022-09-12T05:53:03.221Z,98025.00
2022-09-12T05:55:48.612Z,98027.91
2022-09-12T05:58:35.279Z,98019.69
2022-09-12T06:01:20.485Z,98034.63
2022-09-12T06:04:09.238Z,98025.09
2022-09-12T06:06:54.621Z,98029.50
2022-09-12T06:09:39.421Z,98019.19
2022-09-12T06:12:33.483Z,98027.44
2022-09-12T06:15:18.147Z,98027.41
2022-09-12T06:18:03.273Z,98020.94
2022-09-12T06:20:48.288Z,98018.91
2022-09-12T06:23:34.295Z,98022.78
2022-09-12T06:26:25.029Z,98030.25
2022-09-12T06:29:11.294Z,98026.16
2022-09-12T06:31:56.100Z,98024.09
2022-09-12T06:34:41.136Z,98022.03
2022-09-12T06:37:26.027Z,98020.47
2022-09-12T06:40:14.568Z,98024.88
2022-09-12T06:42:59.648Z,98026.16
2022-09-12T06:45:58.677Z,98026.44
2022-09-12T06:48:51.835Z,98025.41
2022-09-12T06:51:38.207Z,98031.38
2022-09-12T06:54:23.071Z,98027.06
2022-09-12T06:57:08.398Z,98030.44
2022-09-12T06:59:52.974Z,98030.13
2022-09-12T07:02:38.397Z,98031.16
2022-09-12T07:05:23.710Z,98036.56
2022-09-12T07:08:08.794Z,98035.88
2022-09-12T07:10:54.277Z,98033.03
2022-09-12T07:13:41.377Z,98045.19
2022-09-12T07:16:26.812Z,98039.25
2022-09-12T07:19:11.643Z,98049.75
2022-09-12T07:21:58.752Z,98046.59
2022-09-12T07:24:45.276Z,98053.78
2022-09-12T07:27:30.414Z,98055.50
2022-09-12T07:30:17.238Z,98057.78
2022-09-12T07:33:02.180Z,98060.13
2022-09-12T07:35:47.362Z,98058.66
2022-09-12T07:38:32.342Z,98061.75
2022-09-12T07:41:20.272Z,98063.84
2022-09-12T07:44:13.040Z,98058.44
2022-09-12T07:47:14.575Z,98067.00
2022-09-12T07:50:06.676Z,98058.50
2022-09-12T07:53:56.510Z,98068.31
2022-09-12T07:56:41.525Z,98072.94
2022-09-12T07:59:50.803Z,98073.94
2022-09-12T08:02:32.544Z,98075.44
2022-09-12T08:05:18.169Z,98083.91
2022-09-12T08:08:03.408Z,98079.25
2022-09-12T08:10:48.077Z,98080.56
2022-09-12T08:13:35.106Z,98082.22
2022-09-12T08:16:22.204Z,98074.56
2022-09-12T08:19:12.750Z,98079.50
2022-09-12T08:22:01.464Z,98089.56
2022-09-12T08:24:46.285Z,98084.66
2022-09-12T08:27:33.469Z,98086.97
2022-09-12T08:30:18.725Z,98077.13
2022-09-12T08:33:08.307Z,98083.81
2022-09-12T08:35:53.006Z,98086.91
2022-09-12T08:38:40.434Z,98086.66
2022-09-12T08:41:31.025Z,98086.66
2022-09-12T08:44:19.225Z,98091.59
2022-09-12T08:47:22.081Z,98087.75
2022-09-12T08:50:22.025Z,98088.03
2022-09-12T08:53:15.879Z,98089.31
2022-09-12T08:56:03.448Z,98088.53
2022-09-12T08:58:52.331Z,98085.97
2022-09-12T09:01:42.948Z,98082.59
2022-09-12T09:04:42.182Z,98085.22
2022-09-12T09:08:09.075Z,98090.34
2022-09-12T09:11:17.220Z,98088.56
2022-09-12T09:14:26.670Z,98089.84
2022-09-12T09:17:16.202Z,98098.34
2022-09-12T09:20:27.281Z,98091.13
2022-09-12T09:23:29.975Z,98091.66
2022-09-12T09:26:27.092Z,98104.06
2022-09-12T09:29:18.192Z,98101.97
2022-09-12T09:32:13.132Z,98100.94
2022-09-12T09:34:58.365Z,98103.75
2022-09-12T09:38:08.255Z,98106.88
2022-09-12T09:41:14.409Z,98110.47
2022-09-12T09:44:00.639Z,98110.47
2022-09-12T09:46:59.956Z,98112.81
2022-09-12T09:49:45.866Z,98115.63
2022-09-12T09:52:32.351Z,98123.63
2022-09-12T09:55:30.890Z,98123.38
2022-09-12T09:58:33.642Z,98127.25
2022-09-12T10:01:19.485Z,98128.53
2022-09-12T10:04:04.966Z,98125.44
2022-09-12T10:06:59.334Z,98127.72
2022-09-12T10:10:05.827Z,98132.34
2022-09-12T10:13:16.778Z,98130.31
2022-09-12T10:16:07.793Z,98142.22
2022-09-12T10:19:01.806Z,98144.28
2022-09-12T10:21:52.315Z,98142.97
2022-09-12T10:24:41.821Z,98146.34
2022-09-12T10:27:33.349Z,98152.53
2022-09-12T10:30:27.697Z,98149.19
2022-09-12T10:33:12.912Z,98156.94
2022-09-12T10:35:58.194Z,98160.53
2022-09-12T10:38:56.640Z,98167.97
2022-09-12T10:41:41.498Z,98170.50
2022-09-12T10:44:32.402Z,98170.50
2022-09-12T10:47:21.315Z,98173.84
2022-09-12T10:50:35.565Z,98174.63
2022-09-12T10:53:34.471Z,98184.22
2022-09-12T10:56:22.532Z,98176.50
2022-09-12T10:59:26.099Z,98186.31
2022-09-12T11:02:30.467Z,98192.28
2022-09-12T11:05:45.529Z,98184.28
2022-09-12T11:08:45.561Z,98189.44
2022-09-12T11:11:38.752Z,98186.34
2022-09-12T11:14:33.298Z,98196.44
2022-09-12T11:17:42.159Z,98198.47
2022-09-12T11:20:45.457Z,98200.28
2022-09-12T11:23:50.044Z,98202.59
2022-09-12T11:26:55.197Z,98194.34
2022-09-12T11:29:57.314Z,98206.72
2022-09-12T11:32:54.083Z,98204.94
2022-09-12T11:35:50.760Z,98207.25
2022-09-12T11:38:42.611Z,98204.66
2022-09-12T11:41:35.052Z,98212.16
2022-09-12T11:44:28.168Z,98210.88
2022-09-12T11:47:16.118Z,98209.34
2022-09-12T11:50:05.372Z,98213.97
2022-09-12T11:52:52.437Z,98221.22
2022-09-12T11:56:03.841Z,98217.56
2022-09-12T11:58:58.617Z,98215.50
2022-09-12T12:01:48.746Z,98217.56
2022-09-12T12:04:43.756Z,98225.59
2022-09-12T12:07:43.407Z,98214.22
2022-09-12T12:10:40.204Z,98224.28
2022-09-12T12:13:30.556Z,98227.91
2022-09-12T12:16:18.684Z,98228.91
2022-09-12T12:19:23.025Z,98232.03
2022-09-12T12:22:16.248Z,98229.69
2022-09-12T12:25:13.224Z,98233.56
2022-09-12T12:28:05.769Z,98237.94
2022-09-12T12:30:59.037Z,98236.41
2022-09-12T12:33:43.595Z,98235.91
2022-09-12T12:36:30.812Z,98240.03
2022-09-12T12:39:31.019Z,98244.16
2022-09-12T12:42:34.352Z,98235.13
2022-09-12T12:45:28.580Z,98249.59
2022-09-12T12:48:18.168Z,98251.63
2022-09-12T12:51:23.017Z,98249.53
2022-09-12T12:54:50.245Z,98260.38
2022-09-12T12:57:52.558Z,98252.13
2022-09-12T13:00:40.161Z,98256.75
2022-09-12T13:03:29.703Z,98263.97
2022-09-12T13:06:35.935Z,98269.09
2022-09-12T13:09:33.505Z,98269.34
2022-09-12T13:12:23.516Z,98275.78
2022-09-12T13:15:33.633Z,98273.75
2022-09-12T13:18:27.197Z,98275.31
2022-09-12T13:21:18.050Z,98276.63
2022-09-12T13:24:12.462Z,98279.47
2022-09-12T13:26:59.642Z,98275.06
2022-09-12T13:29:44.242Z,98286.41
2022-09-12T13:32:32.728Z,98287.69
2022-09-12T13:35:38.043Z,98288.97
2022-09-12T13:39:02.141Z,98291.56
2022-09-12T13:42:14.486Z,98289.69
2022-09-12T13:45:17.849Z,98293.81
2022-09-12T13:48:03.860Z,98298.19
2022-09-12T13:50:55.700Z,98305.94
2022-09-12T13:53:45.705Z,98302.09
2022-09-12T13:56:30.522Z,98309.03
2022-09-12T13:59:15.643Z,98305.94
2022-09-12T14:02:00.550Z,98304.66
2022-09-12T14:05:09.633Z,98311.28
2022-09-12T14:08:00.766Z,98318.91
2022-09-12T14:10:51.989Z,98318.84
2022-09-12T14:13:39.902Z,98319.78
2022-09-12T14:16:28.375Z,98320.72
2022-09-12T14:19:15.720Z,98324.28
2022-09-12T14:22:01.485Z,98319.59
2022-09-12T14:24:51.062Z,98320.06
2022-09-12T14:28:06.148Z,98322.91
2022-09-12T14:31:13.335Z,98329.09
2022-09-12T14:34:18.604Z,98319.66
2022-09-12T14:37:06.278Z,98329.69
2022-09-12T14:39:54.201Z,98323.53
2022-09-12T14:42:41.961Z,98331.56
2022-09-12T14:45:34.312Z,98328.47
2022-09-12T14:48:19.622Z,98330.50
2022-09-12T14:51:05.688Z,98331.25
2022-09-12T14:53:50.855Z,98328.56
2022-09-12T14:56:43.628Z,98336.53
2022-09-12T15:00:14.367Z,98337.00
2022-09-12T15:02:52.081Z,98336.75
2022-09-12T15:05:48.724Z,98338.53
2022-09-12T15:08:33.695Z,98342.69
2022-09-12T15:11:18.430Z,98340.34
2022-09-12T15:14:13.076Z,98348.84
2022-09-12T15:16:58.719Z,98348.84
2022-09-12T15:19:43.823Z,98352.97
2022-09-12T15:22:28.895Z,98355.03
2022-09-12T15:25:16.752Z,98360.19
2022-09-12T15:28:05.153Z,98356.59
2022-09-12T15:30:52.769Z,98361.22
2022-09-12T15:33:37.424Z,98359.66
2022-09-12T15:36:23.636Z,98352.97
2022-09-12T15:39:09.733Z,98354.78
2022-09-12T15:41:55.731Z,98355.25
2022-09-12T15:44:41.401Z,98358.31
2022-09-12T15:47:26.313Z,98357.78
2022-09-12T15:50:11.502Z,98363.16
2022-09-12T15:52:57.023Z,98360.31
2022-09-12T15:55:43.068Z,98361.63
2022-09-12T15:58:28.135Z,98366.72
2022-09-12T16:01:14.857Z,98360.81
2022-09-12T16:04:02.581Z,98368.78
2022-09-12T16:06:47.123Z,98363.06
2022-09-12T16:09:32.194Z,98361.81
2022-09-12T16:12:17.075Z,98359.50
2022-09-12T16:15:02.245Z,98359.75
2022-09-12T16:17:47.502Z,98368.00
2022-09-12T16:20:32.070Z,98370.56
2022-09-12T16:23:19.926Z,98375.47
2022-09-12T16:26:06.258Z,98375.72
2022-09-12T16:28:58.297Z,98382.13
2022-09-12T16:31:48.983Z,98372.63
2022-09-12T16:34:33.523Z,98375.94
2022-09-12T16:37:24.229Z,98380.03
2022-09-12T16:40:09.833Z,98386.44
2022-09-12T16:42:55.046Z,98388.25
2022-09-12T16:45:41.947Z,98388.50
2022-09-12T16:48:29.143Z,98386.69
2022-09-12T16:51:19.602Z,98395.44
2022-09-12T16:54:05.699Z,98392.31
2022-09-12T16:56:50.933Z,98393.88
2022-09-12T16:59:35.903Z,98403.16
2022-09-12T17:02:20.985Z,98404.69
2022-09-12T17:05:06.353Z,98405.72
2022-09-12T17:07:51.446Z,98405.41
2022-09-12T17:10:40.525Z,98416.25
2022-09-12T17:13:32.871Z,98411.88
2022-09-12T17:16:29.837Z,98413.66
2022-09-12T17:19:20.831Z,98411.88
2022-09-12T17:22:05.550Z,98414.94
2022-09-12T17:24:50.513Z,98414.94
2022-09-12T17:27:35.721Z,98419.31
2022-09-12T17:30:20.586Z,98419.06
2022-09-12T17:33:05.844Z,98414.19
2022-09-12T17:35:50.963Z,98421.38
2022-09-12T17:38:37.587Z,98431.47
2022-09-12T17:41:24.297Z,98436.59
2022-09-12T17:44:14.333Z,98421.66
2022-09-12T17:46:59.144Z,98434.25
2022-09-12T17:49:44.329Z,98434.75
2022-09-12T17:52:29.816Z,98432.09
2022-09-12T17:55:14.905Z,98438.03
2022-09-12T17:58:00.358Z,98434.47
2022-09-12T18:01:03.793Z,98431.88
2022-09-12T18:03:49.024Z,98428.00
2022-09-12T18:06:34.644Z,98435.47
2022-09-12T18:09:21.840Z,98430.56
2022-09-12T18:12:10.356Z,98434.16
2022-09-12T18:14:55.006Z,98428.78
2022-09-12T18:17:40.326Z,98436.72
2022-09-12T18:20:24.790Z,98434.16
2022-09-12T18:23:09.978Z,98437.97
2022-09-12T18:26:07.458Z,98434.56
2022-09-12T18:28:52.407Z,98437.63
2022-09-12T18:31:37.850Z,98441.44
2022-09-12T18:34:22.717Z,98443.47
2022-09-12T18:37:07.696Z,98446.84
2022-09-12T18:39:52.620Z,98440.44
2022-09-12T18:42:37.804Z,98439.97
2022-09-12T18:45:22.704Z,98447.22
2022-09-12T18:48:07.687Z,98445.16
2022-09-12T18:50:52.570Z,98443.91
2022-09-12T18:53:38.466Z,98451.38
2022-09-12T18:56:26.082Z,98446.78
2022-09-12T18:59:14.336Z,98451.94
2022-09-12T19:01:59.218Z,98446.78
2022-09-12T19:04:44.154Z,98445.22
2022-09-12T19:07:29.120Z,98445.22
2022-09-12T19:10:14.181Z,98449.38
2022-09-12T19:12:59.176Z,98441.66
2022-09-12T19:15:44.099Z,98437.50
2022-09-12T19:18:30.757Z,98441.66
2022-09-12T19:21:23.970Z,98446.28
2022-09-12T19:24:09.597Z,98447.53
2022-09-12T19:26:54.728Z,98445.75
2022-09-12T19:29:39.555Z,98440.59
2022-09-12T19:32:24.645Z,98446.78
2022-09-12T19:35:12.227Z,98442.91
2022-09-12T19:37:57.096Z,98436.72
2022-09-12T19:40:42.742Z,98440.56
2022-09-12T19:43:28.171Z,98443.66
2022-09-12T19:46:20.963Z,98441.09
2022-09-12T19:49:06.084Z,98437.50
2022-09-12T19:51:51.143Z,98443.97
2022-09-12T19:54:36.061Z,98441.13
2022-09-12T19:57:21.015Z,98440.13
2022-09-12T20:00:06.980Z,98433.69
2022-09-12T20:02:52.585Z,98442.22
2022-09-12T20:05:42.044Z,98441.75
2022-09-12T20:08:27.421Z,98438.41
2022-09-12T20:11:15.420Z,98441.75
2022-09-12T20:14:00.640Z,98439.19
2022-09-12T20:16:45.363Z,98436.59
2022-09-12T20:19:30.735Z,98443.84
2022-09-12T20:22:15.317Z,98442.59
2022-09-12T20:25:00.417Z,98448.28
2022-09-12T20:27:46.925Z,98443.13
2022-09-12T20:30:31.565Z,98441.81
2022-09-12T20:33:16.295Z,98441.28
2022-09-12T20:36:06.363Z,98447.75
2022-09-12T20:38:57.249Z,98436.13
2022-09-12T20:41:42.173Z,98439.97
2022-09-12T20:44:27.035Z,98440.44
2022-09-12T20:47:11.885Z,98434.75
2022-09-12T20:49:57.002Z,98439.66
2022-09-12T20:52:41.996Z,98441.44
2022-09-12T20:55:27.260Z,98437.56
2022-09-12T20:58:13.003Z,98444.28
2022-09-12T21:00:58.670Z,98446.28
2022-09-12T21:03:44.139Z,98457.16
2022-09-12T21:06:29.511Z,98453.31
2022-09-12T21:09:14.560Z,98457.69
2022-09-12T21:11:59.488Z,98446.59
2022-09-12T21:14:44.311Z,98449.94
2022-09-12T21:17:29.228Z,98443.72
2022-09-12T21:20:14.669Z,98445.22
2022-09-12T21:22:59.275Z,98442.41
2022-09-12T21:25:52.019Z,98451.16
2022-09-12T21:28:37.359Z,98450.38
2022-09-12T21:31:22.659Z,98455.03
2022-09-12T21:34:07.440Z,98451.22
2022-09-12T21:36:52.573Z,98456.66
2022-09-12T21:39:37.531Z,98453.84
2022-09-12T21:42:22.479Z,98455.41
2022-09-12T21:45:08.435Z,98455.94
2022-09-12T21:47:53.426Z,98456.16
2022-09-12T21:50:38.639Z,98462.63
2022-09-12T21:53:23.645Z,98463.19
2022-09-12T21:56:08.707Z,98460.34
2022-09-12T21:58:53.503Z,98451.63
2022-09-12T22:01:38.671Z,98453.16
2022-09-12T22:04:23.500Z,98442.66
2022-09-12T22:07:08.427Z,98444.19
2022-09-12T22:09:53.142Z,98451.38
2022-09-12T22:12:39.209Z,98446.75
2022-09-12T22:15:41.396Z,98451.69
2022-09-12T22:18:26.570Z,98452.69
2022-09-12T22:21:15.204Z,98450.13
2022-09-12T22:24:18.540Z,98448.06
2022-09-12T22:27:05.518Z,98447.84
2022-09-12T22:29:51.312Z,98449.09
2022-09-12T22:32:36.859Z,98447.31
2022-09-12T22:35:21.394Z,98444.97
2022-09-12T22:38:06.442Z,98451.44
2022-09-12T22:40:51.580Z,98447.84
2022-09-12T22:43:37.157Z,98458.94
2022-09-12T22:46:21.924Z,98457.88
2022-09-12T22:49:07.041Z,98466.66
2022-09-12T22:51:52.585Z,98456.09
2022-09-12T22:54:37.643Z,98460.25
2022-09-12T22:57:22.659Z,98456.09
2022-09-12T23:00:10.352Z,98460.25
2022-09-12T23:02:55.595Z,98462.56
2022-09-12T23:05:40.767Z,98450.47
2022-09-12T23:08:28.985Z,98458.19
2022-09-12T23:11:15.847Z,98451.47
2022-09-12T23:14:00.910Z,98447.13
2022-09-12T23:16:45.685Z,98452.25
2022-09-12T23:19:30.747Z,98448.69
2022-09-12T23:22:16.164Z,98448.69
2022-09-12T23:25:00.904Z,98447.91
2022-09-12T23:27:46.505Z,98447.13
2022-09-12T23:30:31.472Z,98447.66
2022-09-12T23:33:16.406Z,98443.75
2022-09-12T23:36:03.657Z,98446.88
2022-09-12T23:38:49.265Z,98444.06
2022-09-12T23:41:34.402Z,98444.31
2022-09-12T23:44:19.229Z,98441.50
2022-09-12T23:47:04.229Z,98440.69
2022-09-12T23:49:49.028Z,98442.50
2022-09-12T23:52:34.078Z,98441.75
2022-09-12T23:55:19.110Z,98441.50
2022-09-12T23:58:04.034Z,98434.25
